createdAt,value
2022-11-12T00:04:18.520Z,16.6
2022-11-12T00:09:57.349Z,16.6
2022-11-12T00:15:34.494Z,16.6
2022-11-12T00:21:12.173Z,16.6
2022-11-12T00:26:49.954Z,16.6
2022-11-12T00:32:31.324Z,16.6
2022-11-12T00:38:10.997Z,16.6
2022-11-12T00:43:49.024Z,16.6
2022-11-12T00:48:56.237Z,16.6
2022-11-12T00:54:33.483Z,16.6
2022-11-12T00:59:57.019Z,16.6
2022-11-12T01:05:38.574Z,16.6
2022-11-12T01:11:17.095Z,16.5
2022-11-12T01:16:43.004Z,16.6
2022-11-12T01:22:06.102Z,16.6
2022-11-12T01:27:43.568Z,16.6
2022-11-12T01:33:21.827Z,16.6
2022-11-12T01:38:45.006Z,16.6
2022-11-12T01:44:08.043Z,16.5
2022-11-12T01:49:51.849Z,16.5
2022-11-12T01:55:30.019Z,16.5
2022-11-12T02:01:12.253Z,16.5
2022-11-12T02:06:50.202Z,16.5
2022-11-12T02:12:28.208Z,16.5
2022-11-12T02:17:50.717Z,16.5
2022-11-12T02:23:28.830Z,16.5
2022-11-12T02:28:49.847Z,16.5
2022-11-12T02:34:27.580Z,16.5
2022-11-12T02:39:51.083Z,16.5
2022-11-12T02:45:28.114Z,16.5
2022-11-12T02:51:06.113Z,16.5
2022-11-12T02:56:28.906Z,16.5
2022-11-12T03:01:51.846Z,16.5
2022-11-12T03:07:20.334Z,16.4
2022-11-12T03:12:42.980Z,16.4
2022-11-12T03:18:20.310Z,16.4
2022-11-12T03:23:42.449Z,16.5
2022-11-12T03:29:22.480Z,16.4
2022-11-12T03:34:59.368Z,16.4
2022-11-12T03:40:35.897Z,16.4
2022-11-12T03:45:58.020Z,16.4
2022-11-12T03:51:04.928Z,16.4
2022-11-12T03:56:26.459Z,16.4
2022-11-12T04:01:34.236Z,16.4
2022-11-12T04:06:40.159Z,16.4
2022-11-12T04:12:02.817Z,16.4
2022-11-12T04:17:25.937Z,16.4
2022-11-12T04:22:16.705Z,16.4
2022-11-12T04:27:22.971Z,16.4
2022-11-12T04:32:45.385Z,16.4
2022-11-12T04:37:57.454Z,16.4
2022-11-12T04:43:19.501Z,16.4
2022-11-12T04:48:42.823Z,16.4
2022-11-12T04:54:05.171Z,16.4
2022-11-12T04:59:26.921Z,16.4
2022-11-12T05:05:05.398Z,16.4
2022-11-12T05:10:43.355Z,16.4
2022-11-12T05:16:21.431Z,16.4
2022-11-12T05:22:00.328Z,16.4
2022-11-12T05:28:33.501Z,16.4
2022-11-12T05:34:14.239Z,16.4
2022-11-12T05:39:54.356Z,16.4
2022-11-12T05:45:58.770Z,16.3
2022-11-12T05:52:05.277Z,16.4
2022-11-12T05:57:51.072Z,16.3
2022-11-12T06:03:13.972Z,16.3
2022-11-12T06:08:36.076Z,16.3
2022-11-12T06:13:59.518Z,16.3
2022-11-12T06:19:21.205Z,16.3
2022-11-12T06:24:49.994Z,16.3
2022-11-12T06:30:13.425Z,16.3
2022-11-12T06:35:39.074Z,16.3
2022-11-12T06:41:03.187Z,16.3
2022-11-12T06:46:09.986Z,16.3
2022-11-12T06:51:48.771Z,16.3
2022-11-12T06:57:11.391Z,16.3
2022-11-12T07:02:53.247Z,16.3
2022-11-12T07:08:34.714Z,16.3
2022-11-12T07:14:02.624Z,16.3
2022-11-12T07:19:25.610Z,16.3
2022-11-12T07:24:52.758Z,16.3
2022-11-12T07:30:53.431Z,16.3
2022-11-12T07:36:24.053Z,16.3
2022-11-12T07:42:04.930Z,16.3
2022-11-12T07:47:49.896Z,16.3
2022-11-12T07:53:28.760Z,16.3
2022-11-12T07:59:06.863Z,16.3
2022-11-12T08:04:51.239Z,16.3
2022-11-12T08:10:39.435Z,16.3
2022-11-12T08:16:22.208Z,16.3
2022-11-12T08:21:44.617Z,16.3
2022-11-12T08:27:22.987Z,16.3
2022-11-12T08:33:01.852Z,16.3
2022-11-12T08:38:28.231Z,16.3
2022-11-12T08:44:08.592Z,16.3
2022-11-12T08:49:48.260Z,16.3
2022-11-12T08:55:26.415Z,16.3
2022-11-12T09:01:05.485Z,16.3
2022-11-12T09:06:43.536Z,16.3
2022-11-12T09:12:13.779Z,16.3
2022-11-12T09:17:52.038Z,16.3
2022-11-12T09:23:36.056Z,16.3
2022-11-12T09:29:14.982Z,16.2
2022-11-12T09:34:53.387Z,16.2
2022-11-12T09:40:33.034Z,16.2
2022-11-12T09:46:44.163Z,16.3
2022-11-12T09:52:23.044Z,16.2
2022-11-12T09:58:00.685Z,16.3
2022-11-12T10:03:39.025Z,16.2
2022-11-12T10:09:22.992Z,16.3
2022-11-12T10:15:07.369Z,16.2
2022-11-12T10:20:45.853Z,16.3
2022-11-12T10:26:24.460Z,16.2
2022-11-12T10:32:02.835Z,16.2
2022-11-12T10:37:40.464Z,16.2
2022-11-12T10:43:24.402Z,16.2
2022-11-12T10:49:02.280Z,16.2
2022-11-12T10:54:41.011Z,16.2
2022-11-12T11:00:19.166Z,16.2
2022-11-12T11:06:03.397Z,16.2
2022-11-12T11:11:26.685Z,16.2
2022-11-12T11:16:50.136Z,16.2
2022-11-12T11:22:17.194Z,16.2
2022-11-12T11:27:55.020Z,16.2
2022-11-12T11:33:33.333Z,16.2
2022-11-12T11:39:11.679Z,16.2
2022-11-12T11:44:50.198Z,16.2
2022-11-12T11:50:48.413Z,16.1
2022-11-12T11:56:31.598Z,16.1
2022-11-12T12:02:09.253Z,16.1
2022-11-12T12:07:48.236Z,16.1
2022-11-12T12:13:55.409Z,16.1
2022-11-12T12:19:34.730Z,16.1
2022-11-12T12:25:13.379Z,16.1
2022-11-12T12:30:50.945Z,16.1
2022-11-12T12:36:34.369Z,16.1
2022-11-12T12:42:18.660Z,16.1
2022-11-12T12:47:41.309Z,16.1
2022-11-12T12:53:20.338Z,16.1
2022-11-12T12:58:59.135Z,16.1
2022-11-12T13:04:26.776Z,16.1
2022-11-12T13:09:50.238Z,16.1
2022-11-12T13:15:30.223Z,16.1
2022-11-12T13:21:07.464Z,16.1
2022-11-12T13:26:37.690Z,16.1
2022-11-12T13:32:16.229Z,16.1
2022-11-12T13:37:44.584Z,16.1
2022-11-12T13:43:28.208Z,16.1
2022-11-12T13:49:07.180Z,16.1
2022-11-12T13:54:35.614Z,16.1
2022-11-12T14:00:02.475Z,16.1
2022-11-12T14:05:45.337Z,16.1
2022-11-12T14:11:23.990Z,16.1
2022-11-12T14:17:02.112Z,16.1
2022-11-12T14:22:44.609Z,16.1
2022-11-12T14:28:29.742Z,16.1
2022-11-12T14:34:10.384Z,16.2
2022-11-12T14:39:52.864Z,16.2
2022-11-12T14:45:52.615Z,16.2
2022-11-12T14:51:33.846Z,16.2
2022-11-12T14:57:24.661Z,16.2
2022-11-12T15:04:06.344Z,16.2
2022-11-12T15:09:28.937Z,16.2
2022-11-12T15:14:59.294Z,16.2
2022-11-12T15:20:36.762Z,16.2
2022-11-12T15:26:21.822Z,16.2
2022-11-12T15:31:44.500Z,16.2
2022-11-12T15:37:23.173Z,16.2
2022-11-12T15:42:46.086Z,16.2
2022-11-12T15:47:38.089Z,16.2
2022-11-12T15:53:22.559Z,16.2
2022-11-12T15:59:06.987Z,16.2
2022-11-12T16:04:30.247Z,16.2
2022-11-12T16:09:52.905Z,16.2
2022-11-12T16:15:15.945Z,16.3
2022-11-12T16:20:54.248Z,16.3
2022-11-12T16:26:17.901Z,16.3
2022-11-12T16:31:56.398Z,16.4
2022-11-12T16:37:34.811Z,16.4
2022-11-12T16:43:12.836Z,16.4
2022-11-12T16:48:51.289Z,16.5
2022-11-12T16:54:28.933Z,16.6
2022-11-12T17:00:10.583Z,16.6
2022-11-12T17:05:38.935Z,16.8
2022-11-12T17:11:05.400Z,16.9
2022-11-12T17:16:28.357Z,16.9
2022-11-12T17:21:57.139Z,17.1
2022-11-12T17:27:19.912Z,17.1
2022-11-12T17:32:46.335Z,17.3
2022-11-12T17:38:09.882Z,17.4
2022-11-12T17:43:32.441Z,17.5
2022-11-12T17:48:54.617Z,17.7
2022-11-12T17:54:01.469Z,17.8
2022-11-12T17:59:25.677Z,18.1
2022-11-12T18:04:48.707Z,18.3
2022-11-12T18:10:14.484Z,18.5
2022-11-12T18:20:48.493Z,18.8
2022-11-12T18:26:10.842Z,18.9
2022-11-12T18:31:33.684Z,19
2022-11-12T18:36:56.428Z,19.1
2022-11-12T18:42:18.736Z,19.3
2022-11-12T18:47:30.697Z,19.3
2022-11-12T18:52:41.500Z,19.4
2022-11-12T18:58:03.927Z,19.5
2022-11-12T19:03:27.657Z,19.6
2022-11-12T19:08:41.591Z,19.7
2022-11-12T19:13:53.652Z,19.8
2022-11-12T19:19:27.101Z,19.8
2022-11-12T19:25:04.418Z,19.8
2022-11-12T19:30:26.717Z,19.8
2022-11-12T19:35:34.158Z,19.9
2022-11-12T19:41:14.811Z,19.9
2022-11-12T19:46:39.881Z,20
2022-11-12T19:51:50.744Z,20.1
2022-11-12T19:57:19.179Z,20.2
2022-11-12T20:02:58.079Z,20.3
2022-11-12T20:08:21.229Z,20.4
2022-11-12T20:13:59.310Z,20.6
2022-11-12T20:19:44.713Z,20.8
2022-11-12T20:25:24.616Z,20.9
2022-11-12T20:31:02.869Z,21.1
2022-11-12T20:52:16.450Z,21.1
2022-11-12T20:57:55.435Z,21
2022-11-12T21:03:22.957Z,20.9
2022-11-12T21:09:03.939Z,20.8
2022-11-12T21:14:26.976Z,20.8
2022-11-12T21:19:56.406Z,20.6
2022-11-12T21:25:35.107Z,20.6
2022-11-12T21:31:01.023Z,20.4
2022-11-12T21:36:39.540Z,20.4
2022-11-12T21:42:02.917Z,20.3
2022-11-12T21:47:41.200Z,20.2
2022-11-12T21:53:22.795Z,20.1
2022-11-12T21:59:01.721Z,20
2022-11-12T22:04:52.708Z,19.9
2022-11-12T22:10:15.907Z,19.9
2022-11-12T22:16:15.137Z,19.8
2022-11-12T22:21:39.995Z,19.7
2022-11-12T22:27:05.542Z,19.6
2022-11-12T22:32:43.508Z,19.6
2022-11-12T22:38:26.571Z,19.5
2022-11-12T22:44:06.098Z,19.4
2022-11-12T22:49:44.164Z,19.4
2022-11-12T22:55:22.681Z,19.3
2022-11-12T23:01:00.962Z,19.2
2022-11-12T23:06:40.622Z,19.2
2022-11-12T23:11:53.022Z,19.1
2022-11-12T23:17:30.614Z,19.1
2022-11-12T23:22:42.498Z,19
2022-11-12T23:28:20.998Z,18.9
2022-11-12T23:33:58.386Z,18.9
2022-11-12T23:39:37.468Z,18.9
2022-11-12T23:45:19.464Z,18.8
2022-11-12T23:50:57.575Z,18.8
